Time;durP1;ratioP1;P1;durP2;ratioP2;P2;SDS_P1;SDS_P2;PMS_P1;PMS_P2;Temp;Humidity;BMP_temperature;BMP_pressure;BME280_temperature;BME280_humidity;BME280_pressure;Samples;Min_cycle;Max_cycle;Signal;HPM_P1;HPM_P2
2022/10/09 00:00:00;;;;;;;16.75;6.07;;;;;;;;;;4996440;28;93618;-78
2022/10/09 00:02:26;;;;;;;16.45;5.82;;;;;;;;;;4997800;28;92482;-78
2022/10/09 00:04:52;;;;;;;9.73;5.15;;;;;;;;;;4996939;28;93802;-78
2022/10/09 00:07:19;;;;;;;12.27;5.80;;;;;;;;;;5006852;28;93317;-78
2022/10/09 00:09:45;;;;;;;10.95;5.13;;;;;;;;;;5017515;28;92471;-78
2022/10/09 00:12:12;;;;;;;17.88;5.90;;;;;;;;;;5013473;28;93096;-78
2022/10/09 00:14:38;;;;;;;13.02;5.97;;;;;;;;;;4997610;28;96891;-78
2022/10/09 00:17:04;;;;;;;13.57;5.40;;;;;;;;;;4996793;28;96390;-79
2022/10/09 00:19:31;;;;;;;14.73;6.32;;;;;;;;;;4996673;28;94411;-77
2022/10/09 00:21:57;;;;;;;17.73;6.15;;;;;;;;;;4995823;28;92976;-78
2022/10/09 00:24:23;;;;;;;17.83;6.03;;;;;;;;;;5007742;28;93716;-78
2022/10/09 00:26:49;;;;;;;14.77;5.82;;;;;;;;;;5016726;28;93438;-77
2022/10/09 00:29:16;;;;;;;10.00;6.07;;;;;;;;;;5016159;28;93335;-78
2022/10/09 00:31:42;;;;;;;17.75;6.45;;;;;;;;;;5017446;28;94262;-77
2022/10/09 00:34:09;;;;;;;9.43;5.88;;;;;;;;;;5016507;28;93908;-79
2022/10/09 00:36:35;;;;;;;13.93;5.55;;;;;;;;;;5019220;28;92379;-79
2022/10/09 00:39:01;;;;;;;14.20;5.90;;;;;;;;;;5014641;28;95683;-79
2022/10/09 00:41:29;;;;;;;9.10;5.82;;;;;;;;;;5015993;28;92559;-79
2022/10/09 00:44:00;;;;;;;10.27;5.55;;;;;;;;;;5016105;28;94037;-78
2022/10/09 00:46:32;;;;;;;11.40;6.03;;;;;;;;;;5016530;28;94255;-80
2022/10/09 00:49:19;;;;;;;20.25;5.95;;;;;;;;;;5015915;28;92462;-79
2022/10/09 00:51:46;;;;;;;16.95;5.70;;;;;;;;;;5016547;28;95161;-79
2022/10/09 00:54:13;;;;;;;22.38;6.80;;;;;;;;;;4997440;28;93442;-79
2022/10/09 00:56:40;;;;;;;13.50;7.10;;;;;;;;;;4996239;28;91869;-79
2022/10/09 00:59:07;;;;;;;9.13;6.00;;;;;;;;;;5016216;28;92851;-78
2022/10/09 01:01:33;;;;;;;14.27;5.90;;;;;;;;;;5016457;28;92427;-78
2022/10/09 01:04:00;;;;;;;20.95;6.38;;;;;;;;;;5013898;28;95177;-78
2022/10/09 01:06:49;;;;;;;20.88;8.68;;;;;;;;;;5016356;28;92569;-79
2022/10/09 01:09:21;;;;;;;22.33;6.40;;;;;;;;;;5010041;28;92516;-79
2022/10/09 01:11:51;;;;;;;15.07;6.25;;;;;;;;;;5015407;28;92893;-79
2022/10/09 01:14:24;;;;;;;13.77;5.85;;;;;;;;;;4996662;28;94185;-80
2022/10/09 01:17:01;;;;;;;16.95;6.63;;;;;;;;;;4996274;28;92505;-79
2022/10/09 01:19:44;;;;;;;17.23;6.15;;;;;;;;;;4995684;28;94237;-79
2022/10/09 01:22:29;;;;;;;7.03;5.15;;;;;;;;;;4998140;28;92316;-78
2022/10/09 01:25:03;;;;;;;13.90;5.80;;;;;;;;;;4995051;28;93223;-79
2022/10/09 01:27:31;;;;;;;16.98;5.90;;;;;;;;;;4996143;28;94116;-80
2022/10/09 01:29:59;;;;;;;16.45;6.40;;;;;;;;;;4994107;28;94736;-79
2022/10/09 01:32:30;;;;;;;10.25;5.03;;;;;;;;;;5006483;28;94535;-79
2022/10/09 01:34:57;;;;;;;13.95;5.85;;;;;;;;;;5015618;28;94506;-79
2022/10/09 01:37:23;;;;;;;9.98;5.25;;;;;;;;;;5016100;28;92385;-78
2022/10/09 01:39:50;;;;;;;10.80;5.72;;;;;;;;;;5015100;28;94145;-78
2022/10/09 01:42:17;;;;;;;14.10;6.32;;;;;;;;;;5018676;28;94248;-80
2022/10/09 01:44:44;;;;;;;10.73;5.35;;;;;;;;;;5015906;28;93879;-79
2022/10/09 01:47:14;;;;;;;13.38;5.88;;;;;;;;;;5015012;28;93360;-81
2022/10/09 01:49:41;;;;;;;15.05;5.90;;;;;;;;;;5014809;28;92423;-80
2022/10/09 01:52:19;;;;;;;9.73;5.32;;;;;;;;;;5012025;28;93952;-79
2022/10/09 01:54:58;;;;;;;14.52;5.88;;;;;;;;;;4992843;28;96542;-79
2022/10/09 01:57:34;;;;;;;12.57;5.95;;;;;;;;;;4995973;28;92483;-78
2022/10/09 02:00:02;;;;;;;13.63;5.90;;;;;;;;;;4994645;28;93857;-79
2022/10/09 02:02:38;;;;;;;20.38;6.13;;;;;;;;;;4994378;28;92892;-79
2022/10/09 02:05:04;;;;;;;12.07;6.15;;;;;;;;;;4999078;28;92428;-79
2022/10/09 02:07:31;;;;;;;19.00;6.18;;;;;;;;;;4994916;28;94195;-79
2022/10/09 02:10:00;;;;;;;9.38;6.40;;;;;;;;;;4995410;28;92482;-79
2022/10/09 02:12:28;;;;;;;10.00;5.50;;;;;;;;;;4995524;28;93820;-78
2022/10/09 02:14:55;;;;;;;15.70;8.18;;;;;;;;;;4994497;28;94423;-79
2022/10/09 02:17:25;;;;;;;10.68;6.50;;;;;;;;;;4995676;28;92699;-79
2022/10/09 02:20:00;;;;;;;7.07;6.38;;;;;;;;;;4994044;28;94711;-78
2022/10/09 02:22:28;;;;;;;12.07;6.57;;;;;;;;;;4994640;28;94100;-78
2022/10/09 02:24:56;;;;;;;12.88;7.65;;;;;;;;;;4995001;28;92470;-79
2022/10/09 02:27:23;;;;;;;15.05;6.68;;;;;;;;;;4998073;28;93910;-79
2022/10/09 02:29:49;;;;;;;8.45;6.38;;;;;;;;;;4994754;28;92460;-79
2022/10/09 02:32:16;;;;;;;11.27;7.30;;;;;;;;;;4995134;28;93882;-79
2022/10/09 02:34:42;;;;;;;13.38;6.97;;;;;;;;;;4993354;28;94202;-79
2022/10/09 02:37:08;;;;;;;9.65;6.70;;;;;;;;;;4995040;28;91647;-79
2022/10/09 02:39:35;;;;;;;14.10;6.65;;;;;;;;;;4995788;28;92367;-79
2022/10/09 02:42:01;;;;;;;11.30;6.72;;;;;;;;;;4994116;28;94095;-79
2022/10/09 02:44:28;;;;;;;7.93;6.90;;;;;;;;;;4993153;28;95164;-79
2022/10/09 02:46:54;;;;;;;10.25;7.10;;;;;;;;;;4995030;28;95502;-78
2022/10/09 02:49:20;;;;;;;10.25;6.70;;;;;;;;;;4996735;28;94193;-79
2022/10/09 02:51:47;;;;;;;7.18;6.35;;;;;;;;;;4994553;28;93840;-78
2022/10/09 02:54:13;;;;;;;12.20;7.30;;;;;;;;;;4994622;28;94034;-79
2022/10/09 02:56:39;;;;;;;9.63;6.85;;;;;;;;;;4994638;28;92661;-78
2022/10/09 02:59:06;;;;;;;12.18;7.82;;;;;;;;;;4994639;28;94639;-79
2022/10/09 03:01:33;;;;;;;10.25;7.65;;;;;;;;;;4995221;28;93375;-79
2022/10/09 03:03:59;;;;;;;18.90;7.55;;;;;;;;;;4993840;28;92621;-79
2022/10/09 03:06:27;;;;;;;12.52;7.38;;;;;;;;;;4994753;28;94449;-78
2022/10/09 03:08:53;;;;;;;7.95;7.10;;;;;;;;;;4992914;28;96650;-79
2022/10/09 03:11:21;;;;;;;12.77;8.02;;;;;;;;;;4996679;28;92382;-78
2022/10/09 03:13:47;;;;;;;14.45;7.38;;;;;;;;;;4994574;28;94167;-78
2022/10/09 03:16:15;;;;;;;14.23;7.13;;;;;;;;;;4994489;28;92397;-78
2022/10/09 03:18:42;;;;;;;11.00;6.13;;;;;;;;;;4993704;28;94214;-78
2022/10/09 03:21:09;;;;;;;8.45;6.72;;;;;;;;;;4994053;28;94081;-78
2022/10/09 03:23:36;;;;;;;8.45;6.68;;;;;;;;;;4994740;28;92454;-78
2022/10/09 03:26:07;;;;;;;14.93;8.10;;;;;;;;;;4993486;28;92926;-78
2022/10/09 03:28:40;;;;;;;10.50;7.15;;;;;;;;;;4994166;28;94702;-78
2022/10/09 03:31:06;;;;;;;12.48;7.20;;;;;;;;;;4994047;28;92389;-78
2022/10/09 03:33:33;;;;;;;16.08;7.88;;;;;;;;;;4995936;28;94704;-78
2022/10/09 03:36:00;;;;;;;14.48;6.95;;;;;;;;;;4994064;28;92462;-78
2022/10/09 03:38:26;;;;;;;11.45;7.57;;;;;;;;;;4993678;28;94437;-78
2022/10/09 03:40:53;;;;;;;11.70;7.00;;;;;;;;;;4994083;28;94156;-78
2022/10/09 03:43:19;;;;;;;16.75;8.93;;;;;;;;;;4993583;28;92429;-78
2022/10/09 03:45:46;;;;;;;16.70;8.38;;;;;;;;;;4994150;28;93972;-78
2022/10/09 03:48:12;;;;;;;11.00;7.57;;;;;;;;;;4997730;28;93205;-78
2022/10/09 03:50:40;;;;;;;13.02;7.95;;;;;;;;;;4998065;28;91702;-78
2022/10/09 03:53:07;;;;;;;11.23;8.77;;;;;;;;;;4999381;28;92409;-78
2022/10/09 03:55:34;;;;;;;11.43;7.30;;;;;;;;;;4996282;28;95060;-77
2022/10/09 03:58:00;;;;;;;16.40;8.90;;;;;;;;;;4995603;28;94852;-78
2022/10/09 04:00:27;;;;;;;9.05;7.80;;;;;;;;;;4996327;28;94213;-79
2022/10/09 04:02:53;;;;;;;14.68;7.88;;;;;;;;;;4997755;28;92351;-79
2022/10/09 04:05:19;;;;;;;13.93;7.60;;;;;;;;;;4997795;28;93871;-79
2022/10/09 04:07:46;;;;;;;9.18;7.45;;;;;;;;;;4996713;28;93964;-79
2022/10/09 04:10:12;;;;;;;12.50;7.03;;;;;;;;;;4997220;28;92461;-78
2022/10/09 04:12:38;;;;;;;11.38;6.68;;;;;;;;;;4996946;28;93883;-78
2022/10/09 04:15:05;;;;;;;12.70;7.40;;;;;;;;;;4999620;28;93493;-78
2022/10/09 04:17:31;;;;;;;9.70;6.80;;;;;;;;;;4997258;28;93139;-78
2022/10/09 04:19:58;;;;;;;11.70;7.28;;;;;;;;;;4996183;28;94027;-78
2022/10/09 04:22:24;;;;;;;14.63;8.23;;;;;;;;;;4995920;28;94726;-78
2022/10/09 04:24:50;;;;;;;10.02;7.07;;;;;;;;;;4996664;28;95702;-78
2022/10/09 04:27:17;;;;;;;16.50;7.72;;;;;;;;;;4995891;28;94297;-78
2022/10/09 04:29:43;;;;;;;12.70;7.47;;;;;;;;;;4996832;28;92527;-78
2022/10/09 04:32:09;;;;;;;10.88;9.02;;;;;;;;;;4996742;28;93909;-78
2022/10/09 04:34:36;;;;;;;19.85;8.10;;;;;;;;;;4995793;28;93423;-78
2022/10/09 04:37:02;;;;;;;14.55;8.88;;;;;;;;;;4999657;28;92956;-78
2022/10/09 04:39:28;;;;;;;14.18;8.68;;;;;;;;;;4997872;28;93587;-78
2022/10/09 04:41:55;;;;;;;11.15;8.25;;;;;;;;;;4995980;28;92310;-78
2022/10/09 04:44:21;;;;;;;8.93;7.78;;;;;;;;;;4996540;28;94717;-78
2022/10/09 04:46:49;;;;;;;13.45;8.10;;;;;;;;;;4994822;28;96682;-78
2022/10/09 04:49:15;;;;;;;14.75;8.48;;;;;;;;;;4995919;28;92429;-78
2022/10/09 04:51:42;;;;;;;12.10;7.57;;;;;;;;;;4996441;28;94190;-78
2022/10/09 04:54:09;;;;;;;10.90;6.78;;;;;;;;;;4996143;28;94220;-78
2022/10/09 04:56:35;;;;;;;12.85;8.85;;;;;;;;;;5008560;28;92637;-78
2022/10/09 04:59:02;;;;;;;13.90;9.27;;;;;;;;;;5018223;28;93077;-78
2022/10/09 05:01:29;;;;;;;13.48;8.55;;;;;;;;;;5016569;28;92448;-78
2022/10/09 05:04:03;;;;;;;13.70;8.35;;;;;;;;;;5015774;28;93820;-77
2022/10/09 05:06:29;;;;;;;11.82;8.40;;;;;;;;;;5016128;28;94294;-78
2022/10/09 05:08:55;;;;;;;10.00;7.88;;;;;;;;;;5016408;28;92336;-78
2022/10/09 05:11:23;;;;;;;11.15;8.38;;;;;;;;;;5013929;28;94933;-78
2022/10/09 05:13:50;;;;;;;14.50;8.60;;;;;;;;;;5014773;28;93389;-78
2022/10/09 05:16:21;;;;;;;10.40;7.57;;;;;;;;;;5015182;28;92828;-78
2022/10/09 05:18:49;;;;;;;12.40;7.15;;;;;;;;;;5016261;28;94061;-78
2022/10/09 05:21:16;;;;;;;13.75;7.60;;;;;;;;;;5018840;28;93326;-78
2022/10/09 05:23:42;;;;;;;14.73;8.45;;;;;;;;;;5015655;28;93916;-78
2022/10/09 05:26:18;;;;;;;10.90;8.57;;;;;;;;;;5015589;28;94450;-78
2022/10/09 05:28:45;;;;;;;9.10;8.18;;;;;;;;;;5016782;28;91649;-78
2022/10/09 05:31:16;;;;;;;10.57;8.38;;;;;;;;;;5010392;28;93195;-78
2022/10/09 05:33:42;;;;;;;9.00;7.43;;;;;;;;;;4994112;28;94402;-78
2022/10/09 05:36:08;;;;;;;11.23;8.27;;;;;;;;;;4993751;28;95240;-78
2022/10/09 05:38:35;;;;;;;10.98;8.27;;;;;;;;;;4992815;28;95209;-76
2022/10/09 05:41:05;;;;;;;10.50;8.25;;;;;;;;;;4993083;28;94113;-79
2022/10/09 05:43:33;;;;;;;12.50;8.48;;;;;;;;;;4997912;28;92466;-78
2022/10/09 05:46:06;;;;;;;15.13;8.18;;;;;;;;;;4994529;28;94303;-79
2022/10/09 05:48:32;;;;;;;11.07;7.53;;;;;;;;;;5015412;28;92349;-78
2022/10/09 05:51:28;;;;;;;17.00;8.10;;;;;;;;;;5014796;28;94068;-78
2022/10/09 05:53:55;;;;;;;9.32;8.40;;;;;;;;;;4975209;28;93534;-78
2022/10/09 05:56:23;;;;;;;11.88;7.95;;;;;;;;;;4975831;28;92520;-77
2022/10/09 05:58:53;;;;;;;15.73;8.55;;;;;;;;;;4975272;28;93491;-78
2022/10/09 06:01:20;;;;;;;8.57;7.68;;;;;;;;;;4973712;28;96509;-78
2022/10/09 06:03:48;;;;;;;16.92;7.57;;;;;;;;;;4986586;28;93937;-78
2022/10/09 06:06:15;;;;;;;10.90;6.95;;;;;;;;;;4991067;28;94208;-78
2022/10/09 06:08:41;;;;;;;12.77;6.65;;;;;;;;;;4995513;28;92583;-78
2022/10/09 06:11:09;;;;;;;8.80;7.43;;;;;;;;;;4993477;28;94999;-78
2022/10/09 06:13:35;;;;;;;10.63;7.45;;;;;;;;;;4994369;28;94256;-78
2022/10/09 06:16:02;;;;;;;9.93;7.50;;;;;;;;;;4993785;28;94101;-78
2022/10/09 06:18:28;;;;;;;13.20;7.63;;;;;;;;;;4994501;28;93737;-77
2022/10/09 06:20:55;;;;;;;7.57;6.80;;;;;;;;;;4993394;28;94634;-77
2022/10/09 06:23:21;;;;;;;9.65;7.47;;;;;;;;;;4995359;28;92538;-77
2022/10/09 06:25:52;;;;;;;10.75;7.43;;;;;;;;;;4995113;28;95625;-79
2022/10/09 06:28:18;;;;;;;10.45;7.85;;;;;;;;;;4994232;28;92500;-77
2022/10/09 06:30:45;;;;;;;16.02;8.57;;;;;;;;;;4994197;28;94318;-79
2022/10/09 06:33:11;;;;;;;10.77;7.25;;;;;;;;;;4994525;28;93579;-77
2022/10/09 06:35:37;;;;;;;13.02;7.88;;;;;;;;;;4992216;28;92536;-78
2022/10/09 06:38:04;;;;;;;8.75;7.85;;;;;;;;;;4994734;28;94184;-77
2022/10/09 06:40:37;;;;;;;16.35;8.50;;;;;;;;;;4995163;28;94288;-78
2022/10/09 06:43:04;;;;;;;12.07;8.00;;;;;;;;;;4995238;28;91705;-81
2022/10/09 06:45:34;;;;;;;14.77;7.78;;;;;;;;;;4993855;28;93194;-77
2022/10/09 06:48:01;;;;;;;11.60;8.50;;;;;;;;;;4997019;28;93521;-77
2022/10/09 06:50:27;;;;;;;12.95;7.75;;;;;;;;;;4990095;28;95037;-77
2022/10/09 06:52:53;;;;;;;13.20;7.80;;;;;;;;;;4983161;28;94052;-78
2022/10/09 06:55:20;;;;;;;9.80;7.85;;;;;;;;;;4991931;28;93091;-77
2022/10/09 06:57:53;;;;;;;9.05;7.82;;;;;;;;;;4994099;28;92966;-78
2022/10/09 07:00:19;;;;;;;10.38;7.90;;;;;;;;;;4991678;28;93849;-78
2022/10/09 07:02:45;;;;;;;10.18;5.75;;;;;;;;;;4987937;28;93790;-77
2022/10/09 07:05:12;;;;;;;17.48;8.05;;;;;;;;;;4988529;28;94039;-79
2022/10/09 07:07:39;;;;;;;18.48;8.13;;;;;;;;;;4990272;28;93106;-79
2022/10/09 07:10:06;;;;;;;12.10;9.05;;;;;;;;;;4996306;28;92434;-78
2022/10/09 07:12:33;;;;;;;10.13;8.73;;;;;;;;;;4994683;28;93521;-78
2022/10/09 07:14:59;;;;;;;9.88;7.75;;;;;;;;;;4990174;28;97808;-79
2022/10/09 07:17:26;;;;;;;17.58;8.98;;;;;;;;;;4988162;28;95613;-79
2022/10/09 07:19:52;;;;;;;12.93;8.18;;;;;;;;;;4992722;28;94198;-78
2022/10/09 07:22:18;;;;;;;11.60;8.10;;;;;;;;;;4997578;28;92345;-78
2022/10/09 07:24:51;;;;;;;21.38;9.45;;;;;;;;;;4993757;28;93945;-78
2022/10/09 07:27:17;;;;;;;18.52;9.30;;;;;;;;;;4996302;28;94163;-79
2022/10/09 07:29:44;;;;;;;19.63;8.85;;;;;;;;;;4993646;28;92465;-79
2022/10/09 07:32:10;;;;;;;13.15;8.65;;;;;;;;;;4994317;28;93216;-79
2022/10/09 07:34:36;;;;;;;20.30;9.25;;;;;;;;;;4989847;28;93728;-78
2022/10/09 07:37:02;;;;;;;14.13;8.68;;;;;;;;;;4989840;28;94043;-79
2022/10/09 07:39:29;;;;;;;15.50;9.27;;;;;;;;;;4991647;28;95825;-78
2022/10/09 07:41:55;;;;;;;16.88;8.65;;;;;;;;;;4995489;28;92489;-79
2022/10/09 07:44:21;;;;;;;11.68;8.27;;;;;;;;;;4995278;28;94091;-78
2022/10/09 07:46:48;;;;;;;18.58;8.18;;;;;;;;;;4995578;28;93910;-78
2022/10/09 07:49:14;;;;;;;15.57;7.97;;;;;;;;;;4997284;28;92440;-77
2022/10/09 07:51:41;;;;;;;15.77;8.18;;;;;;;;;;4994776;28;93778;-78
2022/10/09 07:54:07;;;;;;;24.17;9.25;;;;;;;;;;4993796;28;93200;-77
2022/10/09 07:56:34;;;;;;;15.40;8.25;;;;;;;;;;4990238;28;93992;-79
2022/10/09 07:59:03;;;;;;;8.75;7.43;;;;;;;;;;4988986;28;93461;-79
2022/10/09 08:01:30;;;;;;;13.73;8.02;;;;;;;;;;4997759;28;92446;-79
2022/10/09 08:03:56;;;;;;;15.45;7.32;;;;;;;;;;4984957;28;94999;-78
2022/10/09 08:06:23;;;;;;;15.02;8.48;;;;;;;;;;4976658;28;94372;-77
2022/10/09 08:08:50;;;;;;;17.23;8.65;;;;;;;;;;4985886;28;92439;-78
2022/10/09 08:11:18;;;;;;;13.77;9.18;;;;;;;;;;4996746;28;93942;-78
2022/10/09 08:13:44;;;;;;;14.18;6.85;;;;;;;;;;4996255;28;94235;-78
2022/10/09 08:16:11;;;;;;;13.80;8.15;;;;;;;;;;4994881;28;93952;-77
2022/10/09 08:18:38;;;;;;;10.63;7.32;;;;;;;;;;4992102;28;93818;-78
2022/10/09 08:21:05;;;;;;;20.85;6.95;;;;;;;;;;4994187;28;91718;-77
2022/10/09 08:23:32;;;;;;;13.80;6.97;;;;;;;;;;4996268;28;92520;-77
2022/10/09 08:25:58;;;;;;;12.45;7.18;;;;;;;;;;4993930;28;93993;-78
2022/10/09 08:28:24;;;;;;;15.82;7.07;;;;;;;;;;4993916;28;94906;-78
2022/10/09 08:30:51;;;;;;;8.93;6.95;;;;;;;;;;4991905;28;96247;-79
2022/10/09 08:33:22;;;;;;;11.63;6.63;;;;;;;;;;4993991;28;94986;-78
2022/10/09 08:35:48;;;;;;;12.98;7.15;;;;;;;;;;4996299;28;94213;-80
2022/10/09 08:38:15;;;;;;;11.40;6.90;;;;;;;;;;4993883;28;94108;-79
2022/10/09 08:41:04;;;;;;;11.13;6.57;;;;;;;;;;4983707;28;93575;-79
2022/10/09 08:43:33;;;;;;;9.05;6.43;;;;;;;;;;4993802;28;95768;-78
2022/10/09 08:46:01;;;;;;;19.42;7.03;;;;;;;;;;4996571;28;92540;-79
2022/10/09 08:48:34;;;;;;;14.35;7.13;;;;;;;;;;4996332;28;92928;-78
2022/10/09 08:51:02;;;;;;;14.02;5.95;;;;;;;;;;4993304;28;94360;-78
2022/10/09 08:53:32;;;;;;;13.27;6.65;;;;;;;;;;4992576;28;96749;-78
2022/10/09 08:56:00;;;;;;;24.73;7.00;;;;;;;;;;4993532;28;92516;-79
2022/10/09 08:58:29;;;;;;;13.82;6.03;;;;;;;;;;4994912;28;94036;-78
2022/10/09 09:00:59;;;;;;;11.32;6.63;;;;;;;;;;4987581;28;92496;-79
2022/10/09 09:03:37;;;;;;;15.25;5.70;;;;;;;;;;4975681;28;94701;-78
2022/10/09 09:06:07;;;;;;;12.68;5.78;;;;;;;;;;4979879;28;94673;-78
2022/10/09 09:08:43;;;;;;;8.20;5.70;;;;;;;;;;4992445;28;92554;-78
2022/10/09 09:11:15;;;;;;;16.33;6.57;;;;;;;;;;4995522;28;94466;-78
2022/10/09 09:14:01;;;;;;;13.73;5.70;;;;;;;;;;4992410;28;94090;-78
2022/10/09 09:16:37;;;;;;;14.38;6.13;;;;;;;;;;4993066;28;93272;-78
2022/10/09 09:19:12;;;;;;;23.42;6.32;;;;;;;;;;4994302;28;94824;-79
2022/10/09 09:21:50;;;;;;;16.83;6.15;;;;;;;;;;4986689;28;94770;-78
2022/10/09 09:24:17;;;;;;;9.15;5.20;;;;;;;;;;4988273;28;93933;-79
2022/10/09 09:26:46;;;;;;;10.70;5.57;;;;;;;;;;4989365;28;96659;-78
2022/10/09 09:29:14;;;;;;;23.13;8.48;;;;;;;;;;4993090;28;92511;-78
2022/10/09 09:31:45;;;;;;;16.67;5.57;;;;;;;;;;4995026;28;93077;-79
2022/10/09 09:34:14;;;;;;;11.43;5.35;;;;;;;;;;4995522;28;94215;-78
2022/10/09 09:36:47;;;;;;;15.30;5.38;;;;;;;;;;4995417;28;91817;-79
2022/10/09 09:39:13;;;;;;;16.77;4.88;;;;;;;;;;4975548;28;93119;-79
2022/10/09 09:42:06;;;;;;;13.07;5.30;;;;;;;;;;4982728;28;94977;-78
2022/10/09 09:44:33;;;;;;;15.00;5.22;;;;;;;;;;4996847;28;94955;-79
2022/10/09 09:46:59;;;;;;;14.02;5.25;;;;;;;;;;4995350;28;93248;-77
2022/10/09 09:49:28;;;;;;;11.32;4.50;;;;;;;;;;4995821;28;92380;-78
2022/10/09 09:51:56;;;;;;;14.82;5.85;;;;;;;;;;4992413;28;95073;-79
2022/10/09 09:54:29;;;;;;;17.80;5.40;;;;;;;;;;4994074;28;94012;-80
2022/10/09 09:56:57;;;;;;;9.18;4.35;;;;;;;;;;4995617;28;92403;-78
2022/10/09 09:59:43;;;;;;;13.90;4.80;;;;;;;;;;4986152;28;93860;-77
2022/10/09 10:02:15;;;;;;;10.77;4.93;;;;;;;;;;4990317;28;93381;-76
2022/10/09 10:04:49;;;;;;;13.25;4.80;;;;;;;;;;4997601;28;92443;-77
2022/10/09 10:07:31;;;;;;;11.68;4.60;;;;;;;;;;4994654;28;94145;-77
2022/10/09 10:10:05;;;;;;;9.50;4.60;;;;;;;;;;4993418;28;94835;-78
2022/10/09 10:12:31;;;;;;;12.05;4.97;;;;;;;;;;4994534;28;96346;-78
2022/10/09 10:14:58;;;;;;;18.73;6.03;;;;;;;;;;4983568;28;94267;-80
2022/10/09 10:17:27;;;;;;;21.70;4.10;;;;;;;;;;4981459;28;92646;-80
2022/10/09 10:19:54;;;;;;;12.15;4.25;;;;;;;;;;4995161;28;94556;-79
2022/10/09 10:22:24;;;;;;;9.20;3.45;;;;;;;;;;4992189;28;94228;-80
2022/10/09 10:24:53;;;;;;;;;;;;;;;;;;4995436;28;92421;-79
2022/10/09 10:27:28;;;;;;;18.10;4.40;;;;;;;;;;4997950;28;123680;-81
2022/10/09 10:29:58;;;;;;;7.90;3.42;;;;;;;;;;4995428;28;92348;-81
2022/10/09 10:32:31;;;;;;;12.98;3.90;;;;;;;;;;4995166;28;92884;-79
2022/10/09 10:34:57;;;;;;;9.48;4.15;;;;;;;;;;4992400;28;96776;-80
2022/10/09 10:37:29;;;;;;;11.27;4.57;;;;;;;;;;5009708;28;92532;-79
2022/10/09 10:40:10;;;;;;;4.85;3.92;;;;;;;;;;4994356;28;94124;-81
2022/10/09 10:42:37;;;;;;;11.45;4.57;;;;;;;;;;4994573;28;94824;-80
2022/10/09 10:45:08;;;;;;;7.22;4.10;;;;;;;;;;4990254;28;92410;-80
2022/10/09 10:47:39;;;;;;;10.67;4.40;;;;;;;;;;4991558;28;93871;-80
2022/10/09 10:50:12;;;;;;;14.82;5.43;;;;;;;;;;4977755;28;93423;-80
2022/10/09 10:52:57;;;;;;;10.32;4.63;;;;;;;;;;4995355;28;93990;-80
2022/10/09 10:55:44;;;;;;;11.50;4.68;;;;;;;;;;4998032;28;94160;-78
2022/10/09 10:58:30;;;;;;;10.38;5.13;;;;;;;;;;4980290;28;93079;-79
2022/10/09 11:00:59;;;;;;;10.23;3.97;;;;;;;;;;4990310;28;94838;-76
2022/10/09 11:03:42;;;;;;;11.32;4.30;;;;;;;;;;4991926;28;94231;-80
2022/10/09 11:06:24;;;;;;;15.45;4.45;;;;;;;;;;4979989;28;92562;-79
2022/10/09 11:09:04;;;;;;;10.27;3.90;;;;;;;;;;4991572;28;93334;-78
2022/10/09 11:11:38;;;;;;;8.73;3.65;;;;;;;;;;4990704;28;93597;-76
2022/10/09 11:14:18;;;;;;;10.82;4.13;;;;;;;;;;4997589;28;92449;-78
2022/10/09 11:16:59;;;;;;;9.15;3.70;;;;;;;;;;4993712;28;94335;-78
2022/10/09 11:19:39;;;;;;;8.95;3.58;;;;;;;;;;4994382;28;91854;-77
2022/10/09 11:22:17;;;;;;;5.95;3.15;;;;;;;;;;4993605;28;93101;-79
2022/10/09 11:25:10;;;;;;;11.18;3.72;;;;;;;;;;4993821;28;94435;-79
2022/10/09 11:27:51;;;;;;;12.07;4.20;;;;;;;;;;4991444;28;94915;-79
2022/10/09 11:30:18;;;;;;;11.37;4.33;;;;;;;;;;4991365;28;95447;-78
2022/10/09 11:33:09;;;;;;;8.43;3.78;;;;;;;;;;4987547;28;94695;-80
2022/10/09 11:35:38;;;;;;;11.82;4.20;;;;;;;;;;4987698;28;92514;-79
2022/10/09 11:38:13;;;;;;;10.50;4.75;;;;;;;;;;4995864;28;94125;-79
2022/10/09 11:40:42;;;;;;;8.82;3.47;;;;;;;;;;4993334;28;94445;-81
2022/10/09 11:43:21;;;;;;;10.88;4.13;;;;;;;;;;4990968;28;94283;-79
2022/10/09 11:45:51;;;;;;;6.13;3.47;;;;;;;;;;4993206;28;93094;-79
2022/10/09 11:48:25;;;;;;;10.00;3.67;;;;;;;;;;4993923;28;92457;-79
2022/10/09 11:50:51;;;;;;;8.98;3.42;;;;;;;;;;4993310;28;94035;-80
2022/10/09 11:53:19;;;;;;;7.28;3.25;;;;;;;;;;4991676;28;96870;-80
2022/10/09 11:55:47;;;;;;;4.78;3.10;;;;;;;;;;4994149;28;93243;-79
2022/10/09 11:58:19;;;;;;;9.30;2.83;;;;;;;;;;4993001;28;93941;-79
2022/10/09 12:00:49;;;;;;;4.68;3.00;;;;;;;;;;4996596;28;93106;-78
2022/10/09 12:03:23;;;;;;;7.38;3.03;;;;;;;;;;4989287;28;93692;-78
2022/10/09 12:05:49;;;;;;;9.98;2.90;;;;;;;;;;4984872;28;93242;-78
2022/10/09 12:08:23;;;;;;;7.75;3.42;;;;;;;;;;4991773;28;95453;-78
2022/10/09 12:10:52;;;;;;;10.77;2.75;;;;;;;;;;4982510;28;94177;-78
2022/10/09 12:13:43;;;;;;;6.90;3.00;;;;;;;;;;4995985;28;94004;-78
2022/10/09 12:16:27;;;;;;;6.82;3.00;;;;;;;;;;4981232;28;92364;-78
2022/10/09 12:18:54;;;;;;;5.78;2.80;;;;;;;;;;4994979;28;95160;-79
2022/10/09 12:21:25;;;;;;;11.82;3.50;;;;;;;;;;4999771;28;94121;-78
2022/10/09 12:23:51;;;;;;;9.52;2.85;;;;;;;;;;4996959;28;93978;-79
2022/10/09 12:26:19;;;;;;;8.88;2.72;;;;;;;;;;4994691;28;94196;-78
2022/10/09 12:28:47;;;;;;;4.43;2.72;;;;;;;;;;4997043;28;92448;-78
2022/10/09 12:31:22;;;;;;;6.57;2.83;;;;;;;;;;4996610;28;95386;-79
2022/10/09 12:33:54;;;;;;;5.60;2.97;;;;;;;;;;4995820;28;94138;-79
2022/10/09 12:36:25;;;;;;;7.80;3.28;;;;;;;;;;4996962;28;91748;-79
2022/10/09 12:38:52;;;;;;;6.75;2.67;;;;;;;;;;4994803;28;92432;-79
2022/10/09 12:41:20;;;;;;;10.50;2.92;;;;;;;;;;4995703;28;94117;-78
2022/10/09 12:43:48;;;;;;;6.20;2.95;;;;;;;;;;4996845;28;94924;-78
2022/10/09 12:46:24;;;;;;;5.28;2.47;;;;;;;;;;4984855;28;94267;-77
2022/10/09 12:48:50;;;;;;;7.70;2.88;;;;;;;;;;4996472;28;92440;-79
2022/10/09 12:51:23;;;;;;;7.00;2.58;;;;;;;;;;4981581;28;95962;-79
2022/10/09 12:53:50;;;;;;;11.45;2.80;;;;;;;;;;4975582;28;94399;-77
2022/10/09 12:56:31;;;;;;;9.82;2.97;;;;;;;;;;4995022;28;92872;-79
2022/10/09 12:58:59;;;;;;;9.68;3.10;;;;;;;;;;4993959;28;93714;-79
2022/10/09 13:01:26;;;;;;;10.93;2.47;;;;;;;;;;4977438;28;93856;-79
2022/10/09 13:03:56;;;;;;;5.18;2.50;;;;;;;;;;4981460;28;92492;-78
2022/10/09 13:06:37;;;;;;;7.63;3.25;;;;;;;;;;4999372;28;93872;-78
2022/10/09 13:09:04;;;;;;;10.23;3.38;;;;;;;;;;4984425;28;96627;-77
2022/10/09 13:11:34;;;;;;;8.25;3.67;;;;;;;;;;4989227;28;96535;-77
2022/10/09 13:14:00;;;;;;;10.32;3.50;;;;;;;;;;4992179;28;95788;-76
2022/10/09 13:16:37;;;;;;;3.80;2.70;;;;;;;;;;4993538;28;93020;-78
2022/10/09 13:19:18;;;;;;;7.15;3.05;;;;;;;;;;4992096;28;94359;-79
2022/10/09 13:21:44;;;;;;;4.85;2.58;;;;;;;;;;4993308;28;94145;-80
2022/10/09 13:24:12;;;;;;;5.50;2.55;;;;;;;;;;4995835;28;92772;-79
2022/10/09 13:26:40;;;;;;;7.25;2.90;;;;;;;;;;4992849;28;93913;-79
2022/10/09 13:29:06;;;;;;;2.90;2.55;;;;;;;;;;4978935;28;94271;-79
2022/10/09 13:31:35;;;;;;;9.30;3.50;;;;;;;;;;4992639;28;94043;-78
2022/10/09 13:34:11;;;;;;;5.00;3.30;;;;;;;;;;4980560;28;96129;-79
2022/10/09 13:36:39;;;;;;;7.47;3.15;;;;;;;;;;4995115;28;92871;-79
2022/10/09 13:39:11;;;;;;;9.40;3.80;;;;;;;;;;4992370;28;93901;-81
2022/10/09 13:41:38;;;;;;;10.70;3.55;;;;;;;;;;4992937;28;94415;-80
2022/10/09 13:44:04;;;;;;;9.93;2.78;;;;;;;;;;4992416;28;92622;-81
2022/10/09 13:46:31;;;;;;;7.05;3.38;;;;;;;;;;4992841;28;93561;-81
2022/10/09 13:48:57;;;;;;;8.05;3.88;;;;;;;;;;4993873;28;94275;-80
2022/10/09 13:51:23;;;;;;;4.57;2.67;;;;;;;;;;4995831;28;93558;-82
2022/10/09 13:53:50;;;;;;;9.38;3.00;;;;;;;;;;4995523;28;94115;-81
2022/10/09 13:56:16;;;;;;;7.72;3.22;;;;;;;;;;4992888;28;93189;-80
2022/10/09 13:58:42;;;;;;;6.10;3.28;;;;;;;;;;4986655;28;96760;-81
2022/10/09 14:01:09;;;;;;;9.25;3.00;;;;;;;;;;4991000;28;94558;-80
2022/10/09 14:03:35;;;;;;;5.00;2.92;;;;;;;;;;4994433;28;92362;-82
2022/10/09 14:06:02;;;;;;;8.70;3.22;;;;;;;;;;4974808;28;93668;-80
2022/10/09 14:08:29;;;;;;;2.88;2.53;;;;;;;;;;4987419;28;94048;-82
2022/10/09 14:10:58;;;;;;;7.63;3.10;;;;;;;;;;4993689;28;92453;-82
2022/10/09 14:13:24;;;;;;;4.32;2.92;;;;;;;;;;4995518;28;93301;-76
2022/10/09 14:15:52;;;;;;;7.72;3.53;;;;;;;;;;4994724;28;91638;-85
2022/10/09 14:18:18;;;;;;;6.32;3.40;;;;;;;;;;4994400;28;93129;-85
2022/10/09 14:20:44;;;;;;;11.82;3.75;;;;;;;;;;4994870;28;94391;-85
2022/10/09 14:23:12;;;;;;;9.85;3.22;;;;;;;;;;4993056;28;94891;-85
2022/10/09 14:25:39;;;;;;;6.55;3.08;;;;;;;;;;4993964;28;96339;-85
2022/10/09 14:28:05;;;;;;;5.43;3.08;;;;;;;;;;4994820;28;94137;-85
2022/10/09 14:30:38;;;;;;;10.88;3.13;;;;;;;;;;4993732;28;92520;-85
2022/10/09 14:33:04;;;;;;;6.93;3.20;;;;;;;;;;4996468;28;93981;-84
2022/10/09 14:35:30;;;;;;;7.45;3.33;;;;;;;;;;4995053;28;92332;-85
2022/10/09 14:37:57;;;;;;;6.70;3.03;;;;;;;;;;4994719;28;92953;-85
2022/10/09 14:40:23;;;;;;;6.85;3.75;;;;;;;;;;4994032;28;93336;-85
2022/10/09 14:42:50;;;;;;;13.15;3.25;;;;;;;;;;4993542;28;92436;-85
2022/10/09 14:45:17;;;;;;;4.93;2.60;;;;;;;;;;4994524;28;94006;-84